createdAt,value
2018-06-16T00:01:02.512Z,8.03
2018-06-16T00:03:31.251Z,6.03
2018-06-16T00:06:00.935Z,5.50
2018-06-16T00:08:30.189Z,6.13
2018-06-16T00:10:59.432Z,7.60
2018-06-16T00:13:28.669Z,5.57
2018-06-16T00:15:57.960Z,5.70
2018-06-16T00:18:27.155Z,6.03
2018-06-16T00:20:56.459Z,7.27
2018-06-16T00:23:25.691Z,6.43
2018-06-16T00:25:54.924Z,6.20
2018-06-16T00:28:24.180Z,6.90
2018-06-16T00:30:53.456Z,6.60
2018-06-16T00:33:22.759Z,6.07
2018-06-16T00:35:52.024Z,7.97
2018-06-16T00:38:21.608Z,7.37
2018-06-16T00:40:50.964Z,9.27
2018-06-16T00:43:20.189Z,5.93
2018-06-16T00:45:49.416Z,7.20
2018-06-16T00:48:18.667Z,7.37
2018-06-16T00:50:47.951Z,6.83
2018-06-16T00:53:17.184Z,11.13
2018-06-16T00:55:46.431Z,6.57
2018-06-16T00:58:15.660Z,7.63
2018-06-16T01:00:44.928Z,8.30
2018-06-16T01:03:14.153Z,9.97
2018-06-16T01:05:43.388Z,6.83
2018-06-16T01:08:12.656Z,5.63
2018-06-16T01:10:42.023Z,10.17
2018-06-16T01:13:11.219Z,6.90
2018-06-16T01:15:40.448Z,6.77
2018-06-16T01:18:09.721Z,5.63
2018-06-16T01:20:39.019Z,6.40
2018-06-16T01:23:08.256Z,8.47
2018-06-16T01:25:37.449Z,9.33
2018-06-16T01:28:06.676Z,6.50
2018-06-16T01:30:35.920Z,8.70
2018-06-16T01:33:05.148Z,5.53
2018-06-16T01:35:34.357Z,6.37
2018-06-16T01:38:03.645Z,8.97
2018-06-16T01:40:32.913Z,7.47
2018-06-16T01:43:02.444Z,11.30
2018-06-16T01:45:31.677Z,6.37
2018-06-16T01:48:00.920Z,7.93
2018-06-16T01:50:30.221Z,7.50
2018-06-16T01:52:59.447Z,7.17
2018-06-16T01:55:28.679Z,7.47
2018-06-16T01:57:57.912Z,8.67
2018-06-16T02:00:27.219Z,6.33
2018-06-16T02:02:56.439Z,7.50
2018-06-16T02:05:25.644Z,7.20
2018-06-16T02:07:54.868Z,6.73
2018-06-16T02:10:24.146Z,8.43
2018-06-16T02:12:53.441Z,8.20
2018-06-16T02:15:23.004Z,7.00
2018-06-16T02:17:52.248Z,7.13
2018-06-16T02:20:21.615Z,6.80
2018-06-16T02:22:50.841Z,8.67
2018-06-16T02:25:20.038Z,9.13
2018-06-16T02:27:49.243Z,12.40
2018-06-16T02:30:18.441Z,6.97
2018-06-16T02:32:47.640Z,6.63
2018-06-16T02:35:16.840Z,9.93
2018-06-16T02:37:46.044Z,10.07
2018-06-16T02:40:15.233Z,9.17
2018-06-16T02:42:44.473Z,7.37
2018-06-16T02:45:13.217Z,8.27
2018-06-16T02:47:42.435Z,8.80
2018-06-16T02:50:11.721Z,8.23
2018-06-16T02:52:40.951Z,8.27
2018-06-16T02:55:10.112Z,7.33
2018-06-16T02:57:39.316Z,8.97
2018-06-16T03:00:08.543Z,9.77
2018-06-16T03:02:37.789Z,11.17
2018-06-16T03:05:07.028Z,7.30
2018-06-16T03:07:36.241Z,8.57
2018-06-16T03:10:05.714Z,8.70
2018-06-16T03:12:34.914Z,8.07
2018-06-16T03:15:04.225Z,8.37
2018-06-16T03:17:33.784Z,9.17
2018-06-16T03:20:03.293Z,7.77
2018-06-16T03:22:32.566Z,7.50
2018-06-16T03:25:01.820Z,8.07
2018-06-16T03:27:31.052Z,10.93
2018-06-16T03:30:00.288Z,8.30
2018-06-16T03:32:29.609Z,7.20
2018-06-16T03:34:58.813Z,9.07
2018-06-16T03:37:28.019Z,9.70
2018-06-16T03:39:57.212Z,7.23
2018-06-16T03:42:26.504Z,11.30
2018-06-16T03:44:55.716Z,18.60
2018-06-16T03:47:24.956Z,10.63
2018-06-16T03:49:53.715Z,10.50
2018-06-16T03:52:22.976Z,7.13
2018-06-16T03:54:52.223Z,7.70
2018-06-16T03:57:21.464Z,8.93
2018-06-16T03:59:50.764Z,9.73
2018-06-16T04:02:20.092Z,8.67
2018-06-16T04:04:49.320Z,13.47
2018-06-16T04:07:18.548Z,9.30
2018-06-16T04:09:47.788Z,7.17
2018-06-16T04:12:17.085Z,8.10
2018-06-16T04:14:46.291Z,8.87
2018-06-16T04:17:21.124Z,9.47
2018-06-16T04:19:51.751Z,7.03
2018-06-16T04:22:21.570Z,8.83
2018-06-16T04:24:51.168Z,7.47
2018-06-16T04:27:20.372Z,8.13
2018-06-16T04:29:49.568Z,7.73
2018-06-16T04:32:18.836Z,7.43
2018-06-16T04:34:48.114Z,7.40
2018-06-16T04:37:17.440Z,9.37
2018-06-16T04:39:46.672Z,8.43
2018-06-16T04:42:15.935Z,9.33
2018-06-16T04:44:45.161Z,8.43
2018-06-16T04:47:14.381Z,7.90
2018-06-16T04:49:43.593Z,8.27
2018-06-16T04:52:12.885Z,7.43
2018-06-16T04:54:42.159Z,9.63
2018-06-16T04:57:11.393Z,9.03
2018-06-16T04:59:40.633Z,9.23
2018-06-16T05:02:09.957Z,7.87
2018-06-16T05:04:39.168Z,8.03
2018-06-16T05:07:08.362Z,8.43
2018-06-16T05:09:37.556Z,7.77
2018-06-16T05:12:06.827Z,9.20
2018-06-16T05:14:36.061Z,10.20
2018-06-16T05:17:05.355Z,7.97
2018-06-16T05:19:34.558Z,8.23
2018-06-16T05:22:03.820Z,9.23
2018-06-16T05:24:33.082Z,8.00
2018-06-16T05:27:02.525Z,8.33
2018-06-16T05:29:32.243Z,11.47
2018-06-16T05:32:01.538Z,9.03
2018-06-16T05:34:30.788Z,9.73
2018-06-16T05:37:00.093Z,8.47
2018-06-16T05:39:29.361Z,9.73
2018-06-16T05:41:58.700Z,7.63
2018-06-16T05:44:27.998Z,7.97
2018-06-16T05:46:57.276Z,9.33
2018-06-16T05:49:26.495Z,7.80
2018-06-16T05:51:55.873Z,6.90
2018-06-16T05:54:25.113Z,7.13
2018-06-16T05:56:54.880Z,9.10
2018-06-16T05:59:24.941Z,7.50
2018-06-16T06:01:55.084Z,8.43
2018-06-16T06:04:24.631Z,10.53
2018-06-16T06:06:54.161Z,7.53
2018-06-16T06:09:23.837Z,8.40
2018-06-16T06:11:53.474Z,8.00
2018-06-16T06:14:22.686Z,9.43
2018-06-16T06:16:51.838Z,7.57
2018-06-16T06:19:21.381Z,7.73
2018-06-16T06:21:50.979Z,7.60
2018-06-16T06:24:20.249Z,7.23
2018-06-16T06:26:49.492Z,8.67
2018-06-16T06:29:18.851Z,6.90
2018-06-16T06:31:48.288Z,7.77
2018-06-16T06:34:18.048Z,6.83
2018-06-16T06:36:47.303Z,7.33
2018-06-16T06:39:16.577Z,10.40
2018-06-16T06:43:15.096Z,11.50
2018-06-16T06:45:44.375Z,6.90
2018-06-16T06:48:13.710Z,8.97
2018-06-16T06:50:42.480Z,8.87
2018-06-16T06:53:11.742Z,7.97
2018-06-16T06:55:41.006Z,7.37
2018-06-16T06:58:10.243Z,6.60
2018-06-16T07:00:39.580Z,8.03
2018-06-16T07:03:09.104Z,7.03
2018-06-16T07:05:38.432Z,7.37
2018-06-16T07:08:07.974Z,7.60
2018-06-16T07:10:37.268Z,10.87
2018-06-16T07:13:06.584Z,9.03
2018-06-16T07:15:35.841Z,11.77
2018-06-16T07:18:05.143Z,10.80
2018-06-16T07:20:34.762Z,7.83
2018-06-16T07:23:04.124Z,8.90
2018-06-16T07:25:33.414Z,8.10
2018-06-16T07:28:02.684Z,7.30
2018-06-16T07:30:32.168Z,6.90
2018-06-16T07:33:01.513Z,6.80
2018-06-16T07:35:30.896Z,7.43
2018-06-16T07:38:00.469Z,7.50
2018-06-16T07:40:29.837Z,8.67
2018-06-16T07:42:59.184Z,10.80
2018-06-16T07:45:28.488Z,7.27
2018-06-16T07:47:57.861Z,7.17
2018-06-16T07:50:27.240Z,6.90
2018-06-16T07:52:56.629Z,6.17
2018-06-16T07:55:25.876Z,12.83
2018-06-16T07:57:55.221Z,8.40
2018-06-16T08:00:24.545Z,7.17
2018-06-16T08:02:53.846Z,8.93
2018-06-16T08:05:23.171Z,7.53
2018-06-16T08:07:52.881Z,8.63
2018-06-16T08:10:22.591Z,9.30
2018-06-16T08:12:51.921Z,7.17
2018-06-16T08:15:21.765Z,8.57
2018-06-16T08:17:51.005Z,6.20
2018-06-16T08:20:20.348Z,9.40
2018-06-16T08:22:49.603Z,8.10
2018-06-16T08:25:18.856Z,8.53
2018-06-16T08:27:48.156Z,6.43
2018-06-16T08:30:17.472Z,12.30
2018-06-16T08:32:46.881Z,6.63
2018-06-16T08:35:16.140Z,6.90
2018-06-16T08:37:45.461Z,9.57
2018-06-16T08:40:15.170Z,7.97
2018-06-16T08:42:44.700Z,7.27
2018-06-16T08:45:13.976Z,6.57
2018-06-16T08:47:43.297Z,6.87
2018-06-16T08:50:12.692Z,10.67
2018-06-16T08:52:41.980Z,10.07
2018-06-16T08:55:11.372Z,6.80
2018-06-16T08:57:40.708Z,7.07
2018-06-16T09:00:09.996Z,6.97
2018-06-16T09:02:39.323Z,9.47
2018-06-16T09:05:08.607Z,5.80
2018-06-16T09:07:37.940Z,6.73
2018-06-16T09:10:07.288Z,5.80
2018-06-16T09:12:36.621Z,7.27
2018-06-16T09:15:06.148Z,9.90
2018-06-16T09:17:35.411Z,9.53
2018-06-16T09:20:04.808Z,10.50
2018-06-16T09:22:34.262Z,6.30
2018-06-16T09:25:03.575Z,6.50
2018-06-16T09:27:32.876Z,5.70
2018-06-16T09:30:02.154Z,7.67
2018-06-16T09:32:31.485Z,5.50
2018-06-16T09:35:00.824Z,6.60
2018-06-16T09:37:30.132Z,8.80
2018-06-16T09:39:59.388Z,5.50
2018-06-16T09:42:28.743Z,5.87
2018-06-16T09:44:58.125Z,6.40
2018-06-16T09:47:27.215Z,6.20
2018-06-16T09:49:56.497Z,5.30
2018-06-16T09:52:25.805Z,7.17
2018-06-16T09:54:55.197Z,5.17
2018-06-16T09:57:24.481Z,6.63
2018-06-16T09:59:53.788Z,9.33
2018-06-16T10:02:23.219Z,7.57
2018-06-16T10:04:52.578Z,5.70
2018-06-16T10:07:21.862Z,8.07
2018-06-16T10:09:51.517Z,8.57
2018-06-16T10:12:20.880Z,7.13
2018-06-16T10:14:50.321Z,5.53
2018-06-16T10:17:19.974Z,5.13
2018-06-16T10:19:49.617Z,6.90
2018-06-16T10:22:18.948Z,4.80
2018-06-16T10:24:48.322Z,8.20
2018-06-16T10:27:17.552Z,5.20
2018-06-16T10:29:46.844Z,5.83
2018-06-16T10:32:16.147Z,5.20
2018-06-16T10:34:45.428Z,6.20
2018-06-16T10:37:14.681Z,6.03
2018-06-16T10:39:43.952Z,5.70
2018-06-16T10:42:13.272Z,6.27
2018-06-16T10:44:42.532Z,5.17
2018-06-16T10:47:11.800Z,5.37
2018-06-16T10:49:41.104Z,6.83
2018-06-16T10:52:10.701Z,5.45
2018-06-16T10:54:39.994Z,7.03
2018-06-16T10:57:09.231Z,4.45
2018-06-16T10:59:38.485Z,4.87
2018-06-16T11:02:07.871Z,4.07
2018-06-16T11:04:37.139Z,5.17
2018-06-16T11:07:06.416Z,5.00
2018-06-16T11:09:35.764Z,4.40
2018-06-16T11:12:05.077Z,4.20
2018-06-16T11:14:34.431Z,4.00
2018-06-16T11:17:03.648Z,4.10
2018-06-16T11:19:33.188Z,4.33
2018-06-16T11:22:02.568Z,4.27
2018-06-16T11:24:32.243Z,4.45
2018-06-16T11:27:01.549Z,5.95
2018-06-16T11:29:30.772Z,5.40
2018-06-16T11:32:00.057Z,5.03
2018-06-16T11:34:29.353Z,8.18
2018-06-16T11:36:58.619Z,3.98
2018-06-16T11:39:27.866Z,5.87
2018-06-16T11:41:57.191Z,5.40
2018-06-16T11:44:25.916Z,4.87
2018-06-16T11:46:55.259Z,3.63
2018-06-16T11:49:24.960Z,5.67
2018-06-16T11:51:54.627Z,4.20
2018-06-16T11:54:23.983Z,4.70
2018-06-16T11:56:53.535Z,4.33
2018-06-16T11:59:22.857Z,3.50
2018-06-16T12:01:52.265Z,3.57
2018-06-16T12:04:22.392Z,4.77
2018-06-16T12:06:52.032Z,4.47
2018-06-16T12:09:20.792Z,5.90
2018-06-16T12:11:50.112Z,4.90
2018-06-16T12:14:19.988Z,3.65
2018-06-16T12:16:49.508Z,3.62
2018-06-16T12:19:18.901Z,5.47
2018-06-16T12:21:48.270Z,5.20
2018-06-16T12:24:17.642Z,3.67
2018-06-16T12:26:46.458Z,4.30
2018-06-16T12:29:16.085Z,4.62
2018-06-16T12:31:45.513Z,4.65
2018-06-16T12:34:14.815Z,3.65
2018-06-16T12:36:44.138Z,3.17
2018-06-16T12:39:13.395Z,3.45
2018-06-16T12:41:42.753Z,4.90
2018-06-16T12:44:12.072Z,6.50
2018-06-16T12:46:41.316Z,3.98
2018-06-16T12:49:10.625Z,3.70
2018-06-16T12:51:40.115Z,3.95
2018-06-16T12:54:09.480Z,5.20
2018-06-16T12:56:38.845Z,8.70
2018-06-16T12:59:08.259Z,7.45
2018-06-16T13:01:38.011Z,6.87
2018-06-16T13:04:07.334Z,10.30
2018-06-16T13:06:36.749Z,3.77
2018-06-16T13:09:07.375Z,5.50
2018-06-16T13:11:36.736Z,10.63
2018-06-16T13:14:06.187Z,6.15
2018-06-16T13:16:35.501Z,3.47
2018-06-16T13:19:04.884Z,3.55
2018-06-16T13:21:34.224Z,3.45
2018-06-16T13:24:03.532Z,4.30
2018-06-16T13:26:32.841Z,4.17
2018-06-16T13:29:02.089Z,7.75
2018-06-16T13:31:31.504Z,3.37
2018-06-16T13:34:01.290Z,4.45
2018-06-16T13:36:30.657Z,5.65
2018-06-16T13:39:00.108Z,8.55
2018-06-16T13:41:31.511Z,5.42
2018-06-16T13:44:00.758Z,14.87
2018-06-16T13:46:30.088Z,3.42
2018-06-16T13:48:59.455Z,3.83
2018-06-16T13:51:28.820Z,3.65
2018-06-16T13:53:58.136Z,2.25
2018-06-16T13:56:27.454Z,2.55
2018-06-16T13:58:56.731Z,2.27
2018-06-16T14:01:26.095Z,2.45
2018-06-16T14:03:54.850Z,3.25
2018-06-16T14:06:24.168Z,2.40
2018-06-16T14:08:53.472Z,7.10
2018-06-16T14:11:22.761Z,4.97
2018-06-16T14:13:52.034Z,2.30
2018-06-16T14:16:21.350Z,3.10
2018-06-16T14:18:50.587Z,2.60
2018-06-16T14:21:19.338Z,4.37
2018-06-16T14:23:48.608Z,2.90
2018-06-16T14:26:17.888Z,1.85
2018-06-16T14:28:47.192Z,2.58
2018-06-16T14:31:16.564Z,3.47
2018-06-16T14:33:45.830Z,3.17
2018-06-16T14:36:15.212Z,4.70
2018-06-16T14:38:44.597Z,4.03
2018-06-16T14:41:14.018Z,2.22
2018-06-16T14:43:43.320Z,2.08
2018-06-16T14:46:12.656Z,5.15
2018-06-16T14:48:41.945Z,2.98
2018-06-16T14:51:11.280Z,5.37
2018-06-16T14:53:40.567Z,7.97
2018-06-16T14:56:09.897Z,2.47
2018-06-16T14:58:38.636Z,3.33
2018-06-16T15:01:07.974Z,3.85
2018-06-16T15:03:37.268Z,4.65
2018-06-16T15:06:06.615Z,3.87
2018-06-16T15:08:36.013Z,3.70
2018-06-16T15:11:05.384Z,3.77
2018-06-16T15:13:34.680Z,4.67
2018-06-16T15:16:04.040Z,2.75
2018-06-16T15:18:33.315Z,2.50
2018-06-16T15:21:02.720Z,2.70
2018-06-16T15:23:31.952Z,3.27
2018-06-16T15:26:01.215Z,4.42
2018-06-16T15:28:30.555Z,3.02
2018-06-16T15:30:59.924Z,5.42
2018-06-16T15:33:29.193Z,3.00
2018-06-16T15:35:58.549Z,5.03
2018-06-16T15:38:27.808Z,11.05
2018-06-16T15:40:57.180Z,2.75
2018-06-16T15:43:26.480Z,11.90
2018-06-16T15:45:55.778Z,4.40
2018-06-16T15:48:25.056Z,3.72
2018-06-16T15:50:54.384Z,3.98
2018-06-16T15:53:23.632Z,9.13
2018-06-16T15:55:52.935Z,3.50
2018-06-16T15:58:22.192Z,4.80
2018-06-16T16:00:51.785Z,4.62
2018-06-16T16:03:21.116Z,2.50
2018-06-16T16:05:50.731Z,3.72
2018-06-16T16:08:20.009Z,4.75
2018-06-16T16:10:49.414Z,3.87
2018-06-16T16:13:18.767Z,2.72
2018-06-16T16:15:48.488Z,3.77
2018-06-16T16:18:18.104Z,3.85
2018-06-16T16:20:47.900Z,3.35
2018-06-16T16:23:17.162Z,2.52
2018-06-16T16:25:46.504Z,4.80
2018-06-16T16:28:15.745Z,3.47
2018-06-16T16:30:45.132Z,2.87
2018-06-16T16:33:16.194Z,2.17
2018-06-16T16:35:45.492Z,3.92
2018-06-16T16:38:14.794Z,2.40
2018-06-16T16:40:45.045Z,4.25
2018-06-16T16:43:14.367Z,2.62
2018-06-16T16:45:43.757Z,2.50
2018-06-16T16:48:13.501Z,3.12
2018-06-16T16:50:42.838Z,3.95
2018-06-16T16:53:12.116Z,3.95
2018-06-16T16:55:41.396Z,5.58
2018-06-16T16:58:10.676Z,4.17
2018-06-16T17:00:40.011Z,3.45
2018-06-16T17:03:10.233Z,3.27
2018-06-16T17:05:39.521Z,3.40
2018-06-16T17:08:08.907Z,3.27
2018-06-16T17:10:38.236Z,3.83
2018-06-16T17:13:07.781Z,5.17
2018-06-16T17:15:37.089Z,3.43
2018-06-16T17:18:06.453Z,4.17
2018-06-16T17:20:36.100Z,3.80
2018-06-16T17:23:05.549Z,2.97
2018-06-16T17:25:34.855Z,3.73
2018-06-16T17:28:04.144Z,3.50
2018-06-16T17:30:33.531Z,4.00
2018-06-16T17:33:02.804Z,3.20
2018-06-16T17:35:32.105Z,4.57
2018-06-16T17:38:01.409Z,3.00
2018-06-16T17:40:31.600Z,4.27
2018-06-16T17:43:01.629Z,4.83
2018-06-16T17:45:30.908Z,6.50
2018-06-16T17:48:00.218Z,3.70
2018-06-16T17:50:29.605Z,4.07
2018-06-16T17:52:58.905Z,4.37
2018-06-16T17:55:28.212Z,5.00
2018-06-16T17:57:57.484Z,3.23
2018-06-16T18:00:26.824Z,4.50
2018-06-16T18:02:56.177Z,3.53
2018-06-16T18:05:25.496Z,3.07
2018-06-16T18:07:54.804Z,3.00
2018-06-16T18:10:24.110Z,4.70
2018-06-16T18:12:53.484Z,5.13
2018-06-16T18:15:22.808Z,4.47
2018-06-16T18:17:52.255Z,4.20
2018-06-16T18:20:21.518Z,2.80
2018-06-16T18:22:50.900Z,4.30
2018-06-16T18:25:20.274Z,4.77
2018-06-16T18:27:49.523Z,3.03
2018-06-16T18:30:18.908Z,3.70
2018-06-16T18:32:48.272Z,3.57
2018-06-16T18:35:17.559Z,3.13
2018-06-16T18:37:46.831Z,4.33
2018-06-16T18:40:16.101Z,4.80
2018-06-16T18:42:45.470Z,6.00
2018-06-16T18:45:14.797Z,3.37
2018-06-16T18:47:44.067Z,4.77
2018-06-16T18:50:13.398Z,3.53
2018-06-16T18:52:42.808Z,4.33
2018-06-16T18:55:12.140Z,5.27
2018-06-16T18:57:41.427Z,3.97
2018-06-16T19:00:10.769Z,6.27
2018-06-16T19:02:40.149Z,3.80
2018-06-16T19:05:09.525Z,3.27
2018-06-16T19:07:38.814Z,4.30
2018-06-16T19:10:08.052Z,3.10
2018-06-16T19:12:37.321Z,5.43
2018-06-16T19:15:06.688Z,7.50
2018-06-16T19:17:36.011Z,4.97
2018-06-16T19:20:05.617Z,3.33
2018-06-16T19:22:34.915Z,3.17
2018-06-16T19:25:04.193Z,3.23
2018-06-16T19:27:33.557Z,5.47
2018-06-16T19:30:02.853Z,6.40
2018-06-16T19:32:31.688Z,7.23
2018-06-16T19:35:00.943Z,3.20
2018-06-16T19:37:30.214Z,4.37
2018-06-16T19:39:59.721Z,3.73
2018-06-16T19:42:29.048Z,3.63
2018-06-16T19:44:58.316Z,5.53
2018-06-16T19:47:27.562Z,7.53
2018-06-16T19:49:56.879Z,3.73
2018-06-16T19:52:26.436Z,5.17
2018-06-16T19:54:55.755Z,4.77
2018-06-16T19:57:25.025Z,3.97
2018-06-16T19:59:54.349Z,3.63
2018-06-16T20:02:23.776Z,5.10
2018-06-16T20:04:53.041Z,4.53
2018-06-16T20:07:22.324Z,4.87
2018-06-16T20:09:51.606Z,4.53
2018-06-16T20:12:21.008Z,3.97
2018-06-16T20:14:50.269Z,3.93
2018-06-16T20:17:19.014Z,3.53
2018-06-16T20:19:48.297Z,3.83
2018-06-16T20:22:17.680Z,3.50
2018-06-16T20:24:46.968Z,7.30
2018-06-16T20:27:16.266Z,4.70
2018-06-16T20:29:45.597Z,3.67
2018-06-16T20:32:14.964Z,9.53
2018-06-16T20:34:44.601Z,3.93
2018-06-16T20:37:13.900Z,5.60
2018-06-16T20:39:43.155Z,5.93
2018-06-16T20:42:12.404Z,3.53
2018-06-16T20:44:41.632Z,3.77
2018-06-16T20:47:10.857Z,5.53
2018-06-16T20:49:40.097Z,4.10
2018-06-16T20:52:09.555Z,7.30
2018-06-16T20:54:38.832Z,3.90
2018-06-16T20:57:08.101Z,5.33
2018-06-16T20:59:37.357Z,4.60
2018-06-16T21:02:06.636Z,4.17
2018-06-16T21:04:35.985Z,4.80
2018-06-16T21:07:04.695Z,5.10
2018-06-16T21:09:35.624Z,4.40
2018-06-16T21:12:04.925Z,7.40
2018-06-16T21:14:34.156Z,3.67
2018-06-16T21:17:03.400Z,6.53
2018-06-16T21:19:32.619Z,5.93
2018-06-16T21:22:01.957Z,4.43
2018-06-16T21:24:31.224Z,5.20
2018-06-16T21:27:00.445Z,5.00
2018-06-16T21:29:29.644Z,3.47
2018-06-16T21:31:58.917Z,3.63
2018-06-16T21:34:28.216Z,3.70
2018-06-16T21:36:57.516Z,3.50
2018-06-16T21:39:27.227Z,7.37
2018-06-16T21:41:56.529Z,7.17
2018-06-16T21:44:25.727Z,3.20
2018-06-16T21:46:55.155Z,3.70
2018-06-16T21:49:24.360Z,4.60
2018-06-16T21:51:53.627Z,5.70
2018-06-16T21:54:22.861Z,3.20
2018-06-16T21:56:52.201Z,2.63
2018-06-16T21:59:21.460Z,3.10
2018-06-16T22:01:50.692Z,3.50
2018-06-16T22:04:19.925Z,2.80
2018-06-16T22:06:49.156Z,2.87
2018-06-16T22:09:18.458Z,3.10
2018-06-16T22:11:47.930Z,4.30
2018-06-16T22:14:17.153Z,2.60
2018-06-16T22:16:46.381Z,2.50
2018-06-16T22:19:15.624Z,2.73
2018-06-16T22:21:44.955Z,2.63
2018-06-16T22:24:14.183Z,3.50
2018-06-16T22:26:43.424Z,3.63
2018-06-16T22:29:12.688Z,3.30
2018-06-16T22:31:42.025Z,4.70
2018-06-16T22:34:11.295Z,4.43
2018-06-16T22:36:40.520Z,5.13
2018-06-16T22:39:11.896Z,5.73
2018-06-16T22:41:41.172Z,2.43
2018-06-16T22:44:10.780Z,2.93
2018-06-16T22:46:40.008Z,2.33
2018-06-16T22:49:09.208Z,3.33
2018-06-16T22:51:38.472Z,3.80
2018-06-16T22:54:07.728Z,4.37
2018-06-16T22:56:36.932Z,3.00
2018-06-16T22:59:06.226Z,3.07
2018-06-16T23:01:35.480Z,4.47
2018-06-16T23:04:04.772Z,2.20
2018-06-16T23:06:33.996Z,2.70
2018-06-16T23:09:03.396Z,5.03
2018-06-16T23:11:32.671Z,2.73
2018-06-16T23:14:01.976Z,3.17
2018-06-16T23:16:31.203Z,2.40
2018-06-16T23:19:00.396Z,3.37
2018-06-16T23:21:29.646Z,4.60
2018-06-16T23:23:58.869Z,2.40
2018-06-16T23:26:28.092Z,3.83
2018-06-16T23:28:57.304Z,4.73
2018-06-16T23:31:26.564Z,2.60
2018-06-16T23:33:55.816Z,1.93
2018-06-16T23:36:25.015Z,5.60
2018-06-16T23:38:54.260Z,4.07
2018-06-16T23:41:23.560Z,4.10
2018-06-16T23:43:52.792Z,3.37
2018-06-16T23:46:22.055Z,3.53
2018-06-16T23:48:51.768Z,2.83
2018-06-16T23:51:21.056Z,2.53
2018-06-16T23:53:50.291Z,2.47
2018-06-16T23:56:19.492Z,3.17
2018-06-16T23:58:48.722Z,5.00
